Gurgaon, India

10:46 AM IST on August 30, 2016 (GMT +0530)
Indira Gandhi International | | Change Station

Elev 764 ft 28.57 °N, 77.12 °E | Updated 16 minutes ago

Mostly Cloudy
Mostly Cloudy
86 °F
Feels Like 95 °F
N
0
Wind Variable Wind from North

Today
High -- | Low -- °F
--% Chance of Precip.
Yesterday
High -- | Low -- °F
Precip. -- in
Pressure 29.68 in
Visibility 1.6 miles
Clouds Scattered Clouds 4000 ft
Mostly Cloudy 10000 ft
Heat Index 95 °F
Dew Point 75 °F
Humidity 70%
Rainfall 0.00 in
Snow Depth Not available.
5:59 AM 6:45 PM
Waning Crescent, 5% visible
METAR VIDP 300500Z 00000KT 2500 BR SCT040 BKN100 30/24 Q1005 NOSIG
Pressure 29.68 in
Visibility 1.6 miles
Clouds Scattered Clouds 4000 ft
Mostly Cloudy 10000 ft
Heat Index 95 °F
Dew Point 75 °F
Humidity 70%
Rainfall 0.00 in
Snow Depth Not available.
5:59 AM 6:45 PM
Waning Crescent, 5% visible
METAR VIDP 300500Z 00000KT 2500 BR SCT040 BKN100 30/24 Q1005 NOSIG

10-Day Weather Forecast

No radar image for this location.
×

Almanac

Astronomy

Aug. 30, 2016 Rise Set
Actual Time
Civil Twilight
Nautical Twilight
Astronomical Twilight
Moon
Length of Visible Light
Length of Day
Tomorrow will be .
, % of the Moon is Illuminated

Today's Extremes

Country Highs Country Lows

Community

WunderPhotos

Upload Photos

1,935,793 photos uploaded!

WunderBlog® & News

Nearby

Air Quality

  Air Quality AQ Index Pollutant
Not available.

Snow Depth

Station Depth Elevation

Earthquake Activity

City Distance Mag. Time & Date
Minimum magnitude displayed is 2.5.

Coastal Water Temperatures

Place Temperature

Stations

Nearby Weather Stations

Station Location Temp. Windchill Dew Point Humidity Wind Precip. Elev Updated Type